createdAt,value
2023-01-05T00:02:31.420Z,4.50
2023-01-05T00:05:03.692Z,4.46
2023-01-05T00:07:35.983Z,4.45
2023-01-05T00:10:30.067Z,4.42
2023-01-05T00:13:19.974Z,4.37
2023-01-05T00:16:09.622Z,4.31
2023-01-05T00:19:13.734Z,4.34
2023-01-05T00:22:04.253Z,4.31
2023-01-05T00:24:36.448Z,4.28
2023-01-05T00:27:08.716Z,4.26
2023-01-05T00:29:40.900Z,4.25
2023-01-05T00:32:13.376Z,4.22
2023-01-05T00:34:48.794Z,4.19
2023-01-05T00:37:21.271Z,4.17
2023-01-05T00:39:53.959Z,4.13
2023-01-05T00:42:26.290Z,4.13
2023-01-05T00:44:58.560Z,4.11
2023-01-05T00:47:30.943Z,4.09
2023-01-05T00:50:03.295Z,4.05
2023-01-05T00:52:35.605Z,4.01
2023-01-05T00:55:09.315Z,3.97
2023-01-05T00:57:42.203Z,3.95
2023-01-05T01:00:19.660Z,3.90
2023-01-05T01:02:54.091Z,3.88
2023-01-05T01:05:26.329Z,3.86
2023-01-05T01:07:58.542Z,3.81
2023-01-05T01:10:34.394Z,3.76
2023-01-05T01:13:06.600Z,3.72
2023-01-05T01:15:40.061Z,3.72
2023-01-05T01:18:12.297Z,3.72
2023-01-05T01:20:44.599Z,3.73
2023-01-05T01:23:16.780Z,3.73
2023-01-05T01:25:48.982Z,3.72
2023-01-05T01:28:21.279Z,3.72
2023-01-05T01:30:53.522Z,3.73
2023-01-05T01:33:25.955Z,3.73
2023-01-05T01:35:58.935Z,3.76
2023-01-05T01:38:31.502Z,3.79
2023-01-05T01:41:03.843Z,3.80
2023-01-05T01:43:48.027Z,3.82
2023-01-05T01:46:22.485Z,3.84
2023-01-05T01:48:59.270Z,3.86
2023-01-05T01:51:34.502Z,3.88
2023-01-05T01:54:10.329Z,3.89
2023-01-05T01:56:50.895Z,3.91
2023-01-05T01:59:23.985Z,3.95
2023-01-05T02:02:01.012Z,3.98
2023-01-05T02:04:34.989Z,3.97
2023-01-05T02:07:09.108Z,3.94
2023-01-05T02:09:41.553Z,3.97
2023-01-05T02:12:24.567Z,3.99
2023-01-05T02:15:06.890Z,4.00
2023-01-05T02:17:47.968Z,3.99
2023-01-05T02:20:45.625Z,3.92
2023-01-05T02:23:55.907Z,3.83
2023-01-05T02:27:14.309Z,3.80
2023-01-05T02:30:12.525Z,3.73
2023-01-05T02:32:49.723Z,3.67
2023-01-05T02:35:29.531Z,3.65
2023-01-05T02:38:09.261Z,3.63
2023-01-05T02:40:47.315Z,3.64
2023-01-05T02:43:21.801Z,3.63
2023-01-05T02:45:53.997Z,3.65
2023-01-05T02:48:26.450Z,3.65
2023-01-05T02:51:02.317Z,3.63
2023-01-05T02:53:38.568Z,3.63
2023-01-05T02:56:17.194Z,3.58
2023-01-05T02:58:56.732Z,3.50
2023-01-05T03:01:32.931Z,3.51
2023-01-05T03:04:13.508Z,3.49
2023-01-05T03:06:49.937Z,3.47
2023-01-05T03:09:26.188Z,3.46
2023-01-05T03:12:21.923Z,3.45
2023-01-05T03:14:59.096Z,3.46
2023-01-05T03:17:35.767Z,3.45
2023-01-05T03:20:12.710Z,3.43
2023-01-05T03:23:05.488Z,3.41
2023-01-05T03:25:58.776Z,3.40
2023-01-05T03:28:54.902Z,3.38
2023-01-05T03:31:51.938Z,3.32
2023-01-05T03:34:49.794Z,3.24
2023-01-05T03:37:28.539Z,3.15
2023-01-05T03:40:04.300Z,3.08
2023-01-05T03:42:37.903Z,3.05
2023-01-05T03:45:13.438Z,3.03
2023-01-05T03:47:45.665Z,3.00
2023-01-05T03:50:18.226Z,3.00
2023-01-05T03:52:50.388Z,2.97
2023-01-05T03:55:22.544Z,2.95
2023-01-05T03:57:55.251Z,2.91
2023-01-05T04:00:27.444Z,2.88
2023-01-05T04:02:59.671Z,2.85
2023-01-05T04:05:31.913Z,2.84
2023-01-05T04:08:04.205Z,2.81
2023-01-05T04:10:36.529Z,2.80
2023-01-05T04:13:08.772Z,2.79
2023-01-05T04:15:41.409Z,2.80
2023-01-05T04:18:13.677Z,2.80
2023-01-05T04:20:46.178Z,2.81
2023-01-05T04:23:18.401Z,2.84
2023-01-05T04:25:52.392Z,2.86
2023-01-05T04:28:24.691Z,2.87
2023-01-05T04:30:58.126Z,2.87
2023-01-05T04:33:30.260Z,2.83
2023-01-05T04:36:02.438Z,2.80
2023-01-05T04:38:34.634Z,2.79
2023-01-05T04:41:07.054Z,2.74
2023-01-05T04:43:39.801Z,2.72
2023-01-05T04:46:12.060Z,2.68
2023-01-05T04:48:44.635Z,2.67
2023-01-05T04:51:16.859Z,2.64
2023-01-05T04:53:49.024Z,2.61
2023-01-05T04:56:21.265Z,2.64
2023-01-05T04:58:53.562Z,2.66
2023-01-05T05:01:26.521Z,2.68
2023-01-05T05:03:59.007Z,2.71
2023-01-05T05:06:31.190Z,2.72
2023-01-05T05:09:03.384Z,2.75
2023-01-05T05:11:35.622Z,2.77
2023-01-05T05:14:07.793Z,2.77
2023-01-05T05:16:39.978Z,2.76
2023-01-05T05:19:13.501Z,2.74
2023-01-05T05:21:45.698Z,2.73
2023-01-05T05:24:17.952Z,2.74
2023-01-05T05:26:50.169Z,2.80
2023-01-05T05:29:22.341Z,2.83
2023-01-05T05:31:55.855Z,2.85
2023-01-05T05:34:28.237Z,2.88
2023-01-05T05:37:00.404Z,2.89
2023-01-05T05:39:32.665Z,2.92
2023-01-05T05:42:04.925Z,2.95
2023-01-05T05:44:37.089Z,2.97
2023-01-05T05:47:09.383Z,2.94
2023-01-05T05:49:41.719Z,3.01
2023-01-05T05:52:13.994Z,2.98
2023-01-05T05:54:46.177Z,2.99
2023-01-05T05:57:18.396Z,3.00
2023-01-05T05:59:50.599Z,3.02
2023-01-05T06:02:22.868Z,3.04
2023-01-05T06:04:55.241Z,3.08
2023-01-05T06:07:27.920Z,3.13
2023-01-05T06:10:00.120Z,3.14
2023-01-05T06:12:32.799Z,3.15
2023-01-05T06:15:05.559Z,3.22
2023-01-05T06:17:37.851Z,3.24
2023-01-05T06:20:11.835Z,3.27
2023-01-05T06:22:45.030Z,3.31
2023-01-05T06:25:17.200Z,3.33
2023-01-05T06:27:49.979Z,3.39
2023-01-05T06:30:22.540Z,3.45
2023-01-05T06:32:54.879Z,3.51
2023-01-05T06:35:27.150Z,3.52
2023-01-05T06:37:59.904Z,3.60
2023-01-05T06:40:32.562Z,3.63
2023-01-05T06:43:04.732Z,3.66
2023-01-05T06:45:36.905Z,3.69
2023-01-05T06:48:09.459Z,3.73
2023-01-05T06:50:41.631Z,3.74
2023-01-05T06:53:14.414Z,3.78
2023-01-05T06:55:47.313Z,3.80
2023-01-05T06:58:19.506Z,3.83
2023-01-05T07:00:51.734Z,3.89
2023-01-05T07:03:26.922Z,3.90
2023-01-05T07:05:59.093Z,3.90
2023-01-05T07:08:31.408Z,3.92
2023-01-05T07:11:03.656Z,3.92
2023-01-05T07:13:36.563Z,4.01
2023-01-05T07:16:09.459Z,4.05
2023-01-05T07:18:41.720Z,4.10
2023-01-05T07:21:13.963Z,4.11
2023-01-05T07:23:46.182Z,4.08
2023-01-05T07:26:18.436Z,4.08
2023-01-05T07:28:50.621Z,4.08
2023-01-05T07:31:22.875Z,4.11
2023-01-05T07:33:55.232Z,4.15
2023-01-05T07:36:27.397Z,4.19
2023-01-05T07:38:59.774Z,4.23
2023-01-05T07:41:31.951Z,4.23
2023-01-05T07:44:04.162Z,4.23
2023-01-05T07:46:36.353Z,4.26
2023-01-05T07:49:08.579Z,4.26
2023-01-05T07:51:40.859Z,4.25
2023-01-05T07:54:13.213Z,4.30
2023-01-05T07:56:45.529Z,4.34
2023-01-05T07:59:17.762Z,4.40
2023-01-05T08:01:50.690Z,4.43
2023-01-05T08:04:23.156Z,4.45
2023-01-05T08:06:56.252Z,4.42
2023-01-05T08:09:46.490Z,4.35
2023-01-05T08:12:18.697Z,4.41
2023-01-05T08:14:50.953Z,4.42
2023-01-05T08:17:23.284Z,4.42
2023-01-05T08:19:55.472Z,4.40
2023-01-05T08:22:27.821Z,4.43
2023-01-05T08:25:00.041Z,4.46
2023-01-05T08:27:32.214Z,4.47
2023-01-05T08:30:04.936Z,4.49
2023-01-05T08:32:37.215Z,4.50
2023-01-05T08:35:10.800Z,4.53
2023-01-05T08:37:45.054Z,4.57
2023-01-05T08:40:17.500Z,4.62
2023-01-05T08:42:49.841Z,4.63
2023-01-05T08:45:22.118Z,4.64
2023-01-05T08:47:54.364Z,4.63
2023-01-05T08:50:26.672Z,4.62
2023-01-05T08:52:59.088Z,4.61
2023-01-05T08:55:31.290Z,4.63
2023-01-05T08:58:03.642Z,4.67
2023-01-05T09:00:36.100Z,4.68
2023-01-05T09:03:08.536Z,4.68
2023-01-05T09:05:41.075Z,4.70
2023-01-05T09:08:13.255Z,4.73
2023-01-05T09:10:45.489Z,4.74
2023-01-05T09:13:17.783Z,4.75
2023-01-05T09:15:50.027Z,4.79
2023-01-05T09:18:22.263Z,4.84
2023-01-05T09:20:59.845Z,4.88
2023-01-05T09:23:32.035Z,4.93
2023-01-05T09:26:06.812Z,4.95
2023-01-05T09:28:39.999Z,4.96
2023-01-05T09:31:14.673Z,4.99
2023-01-05T09:33:47.645Z,5.04
2023-01-05T09:36:21.050Z,5.07
2023-01-05T09:38:56.357Z,5.05
2023-01-05T09:41:32.346Z,5.09
2023-01-05T09:44:07.999Z,5.14
2023-01-05T09:46:43.989Z,5.16
2023-01-05T09:49:18.463Z,5.21
2023-01-05T09:51:51.213Z,5.26
2023-01-05T09:54:34.837Z,5.31
2023-01-05T09:57:14.298Z,5.37
2023-01-05T09:59:48.667Z,5.41
2023-01-05T10:02:27.019Z,5.49
2023-01-05T10:05:01.019Z,5.54
2023-01-05T10:07:44.439Z,5.60
2023-01-05T10:10:46.298Z,5.68
2023-01-05T10:13:27.590Z,5.72
2023-01-05T10:15:59.947Z,5.74
2023-01-05T10:18:37.680Z,5.78
2023-01-05T10:21:19.746Z,5.83
2023-01-05T10:24:15.860Z,5.85
2023-01-05T10:27:27.274Z,5.82
2023-01-05T10:29:52.989Z,5.89
2023-01-05T10:32:33.111Z,5.93
2023-01-05T10:38:28.911Z,6.04
2023-01-05T10:41:08.492Z,6.10
2023-01-05T10:43:59.306Z,6.13
2023-01-05T10:46:38.092Z,6.15
2023-01-05T10:49:21.351Z,6.10
2023-01-05T10:51:56.742Z,6.05
2023-01-05T10:54:33.866Z,6.03
2023-01-05T10:57:37.008Z,6.03
2023-01-05T11:00:14.187Z,6.07
2023-01-05T11:03:01.708Z,6.08
2023-01-05T11:05:37.295Z,6.08
2023-01-05T11:08:19.551Z,6.03
2023-01-05T11:10:58.071Z,6.01
2023-01-05T11:13:36.157Z,6.03
2023-01-05T11:16:14.940Z,6.00
2023-01-05T11:18:53.836Z,5.99
2023-01-05T11:21:29.118Z,6.06
2023-01-05T11:24:02.427Z,6.12
2023-01-05T11:26:38.000Z,6.21
2023-01-05T11:29:18.565Z,6.32
2023-01-05T11:31:56.397Z,6.42
2023-01-05T11:34:43.021Z,6.54
2023-01-05T11:37:26.592Z,6.63
2023-01-05T11:40:01.129Z,6.72
2023-01-05T11:42:36.443Z,6.78
2023-01-05T11:45:20.883Z,6.83
2023-01-05T11:47:56.455Z,6.91
2023-01-05T11:50:30.399Z,6.96
2023-01-05T11:53:03.578Z,6.99
2023-01-05T11:55:38.723Z,7.03
2023-01-05T11:58:28.058Z,7.05
2023-01-05T12:01:29.781Z,7.07
2023-01-05T12:04:07.192Z,7.10
2023-01-05T12:07:08.144Z,7.12
2023-01-05T12:09:43.598Z,7.12
2023-01-05T12:12:50.816Z,7.14
2023-01-05T12:15:51.898Z,7.18
2023-01-05T12:18:47.324Z,7.19
2023-01-05T12:21:26.242Z,7.24
2023-01-05T12:24:16.903Z,7.28
2023-01-05T12:27:00.541Z,7.35
2023-01-05T12:36:29.592Z,7.54
2023-01-05T12:39:18.636Z,7.62
2023-01-05T12:42:06.593Z,7.69
2023-01-05T12:44:58.897Z,7.76
2023-01-05T12:47:45.344Z,7.84
2023-01-05T12:50:30.134Z,7.91
2023-01-05T12:53:09.633Z,7.97
2023-01-05T12:55:47.053Z,8.04
2023-01-05T12:58:25.418Z,8.10
2023-01-05T13:00:58.823Z,8.16
2023-01-05T13:03:37.140Z,8.19
2023-01-05T13:06:14.349Z,8.24
2023-01-05T13:08:50.534Z,8.27
2023-01-05T13:11:26.955Z,8.29
2023-01-05T13:14:05.053Z,8.33
2023-01-05T13:16:41.371Z,8.37
2023-01-05T13:19:20.491Z,8.42
2023-01-05T13:21:55.377Z,8.46
2023-01-05T13:24:34.199Z,8.49
2023-01-05T13:27:07.590Z,8.53
2023-01-05T13:29:45.109Z,8.57
2023-01-05T13:32:42.556Z,8.61
2023-01-05T13:35:31.230Z,8.66
2023-01-05T13:38:26.225Z,8.69
2023-01-05T13:41:17.791Z,8.73
2023-01-05T13:44:21.710Z,8.78
2023-01-05T13:47:07.277Z,8.81
2023-01-05T13:50:04.062Z,8.85
2023-01-05T13:52:44.243Z,8.89
2023-01-05T13:55:25.743Z,8.91
2023-01-05T13:57:59.434Z,8.92
2023-01-05T14:00:36.136Z,8.93
2023-01-05T14:03:19.309Z,8.93
2023-01-05T14:05:55.468Z,8.92
2023-01-05T14:08:32.597Z,8.90
2023-01-05T14:11:14.838Z,8.91
2023-01-05T14:13:50.619Z,8.91
2023-01-05T14:16:53.390Z,8.89
2023-01-05T14:19:51.710Z,8.82
2023-01-05T14:22:40.526Z,8.81
2023-01-05T14:25:47.122Z,8.79
2023-01-05T14:28:37.731Z,8.76
2023-01-05T14:31:43.422Z,8.71
2023-01-05T14:34:23.110Z,8.68
2023-01-05T14:37:05.634Z,8.66
2023-01-05T14:39:45.145Z,8.59
2023-01-05T14:42:28.797Z,8.61
2023-01-05T14:45:07.061Z,8.58
2023-01-05T14:47:43.671Z,8.53
2023-01-05T14:50:35.503Z,8.50
2023-01-05T14:53:14.529Z,8.47
2023-01-05T14:56:17.059Z,8.45
2023-01-05T14:59:06.114Z,8.42
2023-01-05T15:01:46.839Z,8.39
2023-01-05T15:04:23.981Z,8.37
2023-01-05T15:07:16.144Z,8.34
2023-01-05T15:10:03.310Z,8.30
2023-01-05T15:12:52.932Z,8.28
2023-01-05T15:15:47.408Z,8.27
2023-01-05T15:18:42.857Z,8.25
2023-01-05T15:21:38.085Z,8.23
2023-01-05T15:24:38.421Z,8.21
2023-01-05T15:27:31.563Z,8.20
2023-01-05T15:30:21.855Z,8.20
2023-01-05T15:33:01.604Z,8.18
2023-01-05T15:35:37.852Z,8.16
2023-01-05T15:38:25.874Z,8.16
2023-01-05T15:41:06.175Z,8.16
2023-01-05T15:43:42.688Z,8.15
2023-01-05T15:46:18.785Z,8.15
2023-01-05T15:48:54.525Z,8.16
2023-01-05T15:51:29.261Z,8.17
2023-01-05T15:54:05.430Z,8.15
2023-01-05T15:56:42.044Z,8.19
2023-01-05T15:59:25.292Z,8.20
2023-01-05T16:01:57.783Z,8.19
2023-01-05T16:04:30.339Z,8.19
2023-01-05T16:07:05.706Z,8.17
2023-01-05T16:09:41.046Z,8.16
2023-01-05T16:12:24.325Z,8.15
2023-01-05T16:15:01.733Z,8.15
2023-01-05T16:17:37.447Z,8.14
2023-01-05T16:20:17.211Z,8.12
2023-01-05T16:22:57.921Z,8.11
2023-01-05T16:25:38.834Z,8.09
2023-01-05T16:28:18.908Z,8.06
2023-01-05T16:30:52.646Z,8.05
2023-01-05T16:33:35.880Z,8.02
2023-01-05T16:36:20.493Z,8.01
2023-01-05T16:38:52.749Z,7.98
2023-01-05T16:41:27.478Z,7.97
2023-01-05T16:44:02.027Z,7.95
2023-01-05T16:46:40.001Z,7.94
2023-01-05T16:49:41.139Z,7.93
2023-01-05T16:52:27.391Z,7.92
2023-01-05T16:55:30.388Z,7.93
2023-01-05T16:58:04.377Z,7.91
2023-01-05T17:00:39.676Z,7.92
2023-01-05T17:03:32.711Z,7.94
2023-01-05T17:06:05.311Z,7.95
2023-01-05T17:08:37.893Z,7.95
2023-01-05T17:11:13.293Z,7.96
2023-01-05T17:13:49.087Z,7.95
2023-01-05T17:16:22.320Z,7.98
2023-01-05T17:18:54.692Z,7.99
2023-01-05T17:21:28.685Z,7.99
2023-01-05T17:24:02.643Z,7.99
2023-01-05T17:26:40.402Z,8.01
2023-01-05T17:29:23.179Z,8.02
2023-01-05T17:31:55.915Z,8.04
2023-01-05T17:34:28.295Z,8.05
2023-01-05T17:37:02.632Z,8.05
2023-01-05T17:39:34.803Z,8.06
2023-01-05T17:42:24.461Z,8.06
2023-01-05T17:44:56.757Z,8.07
2023-01-05T17:47:29.081Z,8.08
2023-01-05T17:50:01.317Z,8.10
2023-01-05T17:52:33.658Z,8.09
2023-01-05T17:55:06.551Z,8.09
2023-01-05T17:57:38.926Z,8.08
2023-01-05T18:00:15.440Z,8.06
2023-01-05T18:02:48.005Z,8.04
2023-01-05T18:05:20.914Z,8.03
2023-01-05T18:07:53.847Z,8.03
2023-01-05T18:10:29.071Z,8.01
2023-01-05T18:13:01.576Z,8.00
2023-01-05T18:15:34.160Z,8.00
2023-01-05T18:18:07.072Z,8.02
2023-01-05T18:20:41.044Z,8.07
2023-01-05T18:23:13.549Z,8.10
2023-01-05T18:25:45.770Z,8.13
2023-01-05T18:28:18.144Z,8.16
2023-01-05T18:30:50.360Z,8.19
2023-01-05T18:33:22.660Z,8.21
2023-01-05T18:38:27.176Z,8.23
2023-01-05T18:40:59.324Z,8.25
2023-01-05T18:43:32.701Z,8.26
2023-01-05T18:46:05.567Z,8.26
2023-01-05T18:48:37.742Z,8.28
2023-01-05T18:51:11.034Z,8.29
2023-01-05T18:53:43.196Z,8.29
2023-01-05T18:56:16.902Z,8.29
2023-01-05T18:58:49.081Z,8.29
2023-01-05T19:01:23.108Z,8.28
2023-01-05T19:03:55.706Z,8.28
2023-01-05T19:06:29.005Z,8.29
2023-01-05T19:09:05.394Z,8.31
2023-01-05T19:11:39.573Z,8.33
2023-01-05T19:14:12.777Z,8.34
2023-01-05T19:16:44.986Z,8.37
2023-01-05T19:19:19.560Z,8.38
2023-01-05T19:21:52.314Z,8.38
2023-01-05T19:24:26.732Z,8.39
2023-01-05T19:26:58.934Z,8.40
2023-01-05T19:29:31.180Z,8.41
2023-01-05T19:32:03.357Z,8.42
2023-01-05T19:34:35.536Z,8.42
2023-01-05T19:37:07.942Z,8.41
2023-01-05T19:39:40.389Z,8.41
2023-01-05T19:42:12.671Z,8.40
2023-01-05T19:44:46.347Z,8.42
2023-01-05T19:47:18.516Z,8.43
2023-01-05T19:49:50.705Z,8.44
2023-01-05T19:52:29.703Z,8.44
2023-01-05T19:55:02.108Z,8.42
2023-01-05T19:57:34.483Z,8.40
2023-01-05T20:00:08.722Z,8.39
2023-01-05T20:02:42.312Z,8.38
2023-01-05T20:05:15.156Z,8.34
2023-01-05T20:07:47.339Z,8.28
2023-01-05T20:10:20.327Z,8.24
2023-01-05T20:12:53.742Z,8.22
2023-01-05T20:15:26.049Z,8.20
2023-01-05T20:17:58.265Z,8.19
2023-01-05T20:20:30.569Z,8.18
2023-01-05T20:23:02.711Z,8.18
2023-01-05T20:25:34.961Z,8.17
2023-01-05T20:28:07.914Z,8.11
2023-01-05T20:30:40.177Z,8.10
2023-01-05T20:33:13.114Z,8.06
2023-01-05T20:35:45.292Z,8.01
2023-01-05T20:38:17.586Z,7.93
2023-01-05T20:40:49.730Z,7.88
2023-01-05T20:43:21.895Z,7.84
2023-01-05T20:45:54.093Z,7.84
2023-01-05T20:48:26.267Z,7.83
2023-01-05T20:51:05.137Z,7.81
2023-01-05T20:53:38.579Z,7.78
2023-01-05T20:56:13.246Z,7.77
2023-01-05T20:58:47.131Z,7.75
2023-01-05T21:01:20.335Z,7.71
2023-01-05T21:03:53.051Z,7.67
2023-01-05T21:06:25.238Z,7.64
2023-01-05T21:08:58.165Z,7.64
2023-01-05T21:11:30.844Z,7.62
2023-01-05T21:14:06.332Z,7.59
2023-01-05T21:16:40.890Z,7.59
2023-01-05T21:19:17.897Z,7.58
2023-01-05T21:21:51.788Z,7.58
2023-01-05T21:24:24.782Z,7.57
2023-01-05T21:26:57.480Z,7.60
2023-01-05T21:29:29.866Z,7.61
2023-01-05T21:32:02.159Z,7.63
2023-01-05T21:34:34.432Z,7.65
2023-01-05T21:37:06.610Z,7.67
2023-01-05T21:39:38.807Z,7.67
2023-01-05T21:42:28.901Z,7.68
2023-01-05T21:45:01.733Z,7.68
2023-01-05T21:47:36.038Z,7.68
2023-01-05T21:50:10.241Z,7.69
2023-01-05T21:52:59.902Z,7.68
2023-01-05T21:55:50.253Z,7.68
2023-01-05T21:58:22.409Z,7.65
2023-01-05T22:00:59.273Z,7.62
2023-01-05T22:03:31.778Z,7.60
2023-01-05T22:06:03.973Z,7.56
2023-01-05T22:08:36.183Z,7.57
2023-01-05T22:11:08.781Z,7.57
2023-01-05T22:13:42.032Z,7.57
2023-01-05T22:16:14.622Z,7.55
2023-01-05T22:18:46.819Z,7.53
2023-01-05T22:21:19.063Z,7.53
2023-01-05T22:23:51.238Z,7.53
2023-01-05T22:26:23.872Z,7.53
2023-01-05T22:28:56.188Z,7.53
2023-01-05T22:31:30.859Z,7.53
2023-01-05T22:34:03.694Z,7.54
2023-01-05T22:36:35.858Z,7.53
2023-01-05T22:39:08.167Z,7.53
2023-01-05T22:41:40.390Z,7.51
2023-01-05T22:44:13.797Z,7.50
2023-01-05T22:46:46.010Z,7.50
2023-01-05T22:49:18.360Z,7.49
2023-01-05T22:51:50.808Z,7.46
2023-01-05T22:54:23.285Z,7.44
2023-01-05T22:56:55.740Z,7.44
2023-01-05T22:59:28.748Z,7.39
2023-01-05T23:02:01.039Z,7.42
2023-01-05T23:04:33.554Z,7.40
2023-01-05T23:07:05.760Z,7.39
2023-01-05T23:09:38.462Z,7.37
2023-01-05T23:12:12.036Z,7.37
2023-01-05T23:14:44.919Z,7.37
2023-01-05T23:17:17.113Z,7.34
2023-01-05T23:19:49.314Z,7.33
2023-01-05T23:22:21.805Z,7.31
2023-01-05T23:24:54.160Z,7.33
2023-01-05T23:27:26.340Z,7.32
2023-01-05T23:29:58.474Z,7.39
2023-01-05T23:32:30.679Z,7.42
2023-01-05T23:35:02.981Z,7.42
2023-01-05T23:37:35.192Z,7.43
2023-01-05T23:40:09.461Z,7.43
2023-01-05T23:42:46.254Z,7.44
2023-01-05T23:45:18.768Z,7.45
2023-01-05T23:47:51.186Z,7.47
2023-01-05T23:50:23.391Z,7.47
2023-01-05T23:52:55.682Z,7.47
2023-01-05T23:55:29.029Z,7.47
2023-01-05T23:58:01.593Z,7.44
